createdAt,value
2019-05-26T00:00:49.719Z,81.67
2019-05-26T00:01:49.705Z,81.87
2019-05-26T00:02:49.696Z,82.89
2019-05-26T00:03:49.696Z,81.67
2019-05-26T00:04:49.670Z,82.07
2019-05-26T00:05:49.659Z,82.07
2019-05-26T00:06:49.651Z,82.28
2019-05-26T00:07:49.649Z,82.28
2019-05-26T00:08:49.852Z,82.07
2019-05-26T00:09:49.617Z,81.46
2019-05-26T00:10:49.608Z,81.06
2019-05-26T00:11:49.601Z,82.48
2019-05-26T00:12:49.587Z,82.28
2019-05-26T00:13:49.592Z,82.62
2019-05-26T00:14:49.575Z,84.11
2019-05-26T00:15:49.551Z,81.57
2019-05-26T00:16:49.540Z,82.38
2019-05-26T00:17:49.542Z,81.67
2019-05-26T00:18:49.534Z,82.38
2019-05-26T00:19:49.520Z,82.68
2019-05-26T00:20:49.497Z,82.28
2019-05-26T00:21:49.484Z,82.79
2019-05-26T00:22:49.473Z,82.79
2019-05-26T00:23:49.473Z,82.28
2019-05-26T00:24:49.457Z,82.89
2019-05-26T00:25:49.443Z,82.99
2019-05-26T00:26:49.430Z,82.21
2019-05-26T00:27:49.426Z,82.48
2019-05-26T00:28:49.418Z,82.52
2019-05-26T00:29:49.401Z,82.38
2019-05-26T00:30:49.732Z,82.82
2019-05-26T00:31:49.408Z,83.29
2019-05-26T00:32:49.402Z,83.40
2019-05-26T00:33:49.407Z,83.03
2019-05-26T00:34:49.399Z,82.82
2019-05-26T00:35:49.352Z,82.48
2019-05-26T00:36:49.333Z,82.18
2019-05-26T00:37:50.509Z,83.29
2019-05-26T00:38:49.322Z,83.03
2019-05-26T00:39:49.291Z,83.40
2019-05-26T00:40:49.285Z,83.40
2019-05-26T00:41:49.288Z,82.62
2019-05-26T00:42:49.256Z,83.50
2019-05-26T00:43:49.249Z,82.73
2019-05-26T00:44:49.242Z,83.44
2019-05-26T00:45:49.229Z,83.34
2019-05-26T00:46:49.220Z,82.42
2019-05-26T00:47:49.199Z,82.89
2019-05-26T00:48:49.205Z,83.54
2019-05-26T00:49:49.190Z,84.05
2019-05-26T00:50:49.186Z,83.44
2019-05-26T00:51:49.157Z,83.64
2019-05-26T00:52:49.147Z,83.64
2019-05-26T00:53:49.135Z,84.25
2019-05-26T00:54:49.134Z,84.15
2019-05-26T00:55:49.114Z,83.95
2019-05-26T00:56:49.127Z,83.03
2019-05-26T00:57:49.095Z,82.52
2019-05-26T00:58:49.086Z,84.15
2019-05-26T00:59:49.352Z,83.13
2019-05-26T01:00:49.062Z,82.73
2019-05-26T01:01:49.049Z,82.73
2019-05-26T01:02:49.040Z,83.44
2019-05-26T01:03:49.029Z,83.54
2019-05-26T01:04:49.028Z,83.74
2019-05-26T01:05:49.006Z,83.34
2019-05-26T01:06:49.082Z,85.88
2019-05-26T01:08:05.176Z,84.50
2019-05-26T01:08:49.982Z,83.34
2019-05-26T01:09:49.004Z,84.15
2019-05-26T01:10:48.953Z,83.74
2019-05-26T01:11:48.940Z,85.06
2019-05-26T01:12:48.930Z,84.70
2019-05-26T01:13:48.926Z,85.41
2019-05-26T01:14:48.931Z,85.11
2019-05-26T01:15:48.916Z,84.19
2019-05-26T01:16:48.889Z,84.50
2019-05-26T01:17:48.874Z,84.80
2019-05-26T01:18:48.865Z,84.80
2019-05-26T01:19:48.875Z,85.21
2019-05-26T01:20:48.853Z,85.31
2019-05-26T01:21:48.853Z,84.39
2019-05-26T01:22:48.822Z,84.70
2019-05-26T01:23:48.813Z,85.41
2019-05-26T01:24:48.825Z,85.31
2019-05-26T01:25:48.790Z,85.00
2019-05-26T01:26:48.786Z,86.06
2019-05-26T01:27:48.768Z,85.05
2019-05-26T01:28:48.822Z,85.35
2019-05-26T01:29:48.742Z,85.55
2019-05-26T01:30:48.738Z,85.86
2019-05-26T01:31:48.723Z,86.16
2019-05-26T01:32:48.726Z,85.14
2019-05-26T01:33:48.701Z,85.86
2019-05-26T01:34:48.690Z,85.96
2019-05-26T01:35:48.679Z,85.80
2019-05-26T01:36:48.672Z,84.74
2019-05-26T01:37:48.663Z,85.19
2019-05-26T01:38:48.646Z,85.49
2019-05-26T01:39:48.643Z,86.30
2019-05-26T01:40:48.629Z,85.08
2019-05-26T01:41:48.614Z,84.98
2019-05-26T01:42:48.607Z,86.21
2019-05-26T01:43:48.604Z,86.71
2019-05-26T01:44:48.607Z,87.43
2019-05-26T01:45:48.582Z,86.30
2019-05-26T01:46:48.559Z,86.82
2019-05-26T01:47:48.570Z,85.60
2019-05-26T01:48:48.576Z,85.90
2019-05-26T01:49:48.539Z,85.84
2019-05-26T01:50:48.647Z,86.10
2019-05-26T01:51:48.532Z,86.35
2019-05-26T01:52:48.492Z,86.24
2019-05-26T01:53:48.495Z,87.57
2019-05-26T01:54:48.474Z,86.15
2019-05-26T01:55:48.475Z,86.96
2019-05-26T01:56:48.448Z,87.37
2019-05-26T01:57:48.445Z,87.47
2019-05-26T01:58:48.432Z,86.35
2019-05-26T01:59:48.418Z,87.47
2019-05-26T02:00:48.706Z,87.67
2019-05-26T02:01:48.422Z,86.96
2019-05-26T02:02:48.389Z,86.45
2019-05-26T02:03:48.373Z,87.06
2019-05-26T02:04:48.361Z,87.67
2019-05-26T02:05:48.368Z,85.74
2019-05-26T02:06:48.353Z,86.96
2019-05-26T02:07:48.347Z,86.39
2019-05-26T02:08:48.327Z,87.47
2019-05-26T02:09:48.308Z,85.94
2019-05-26T02:10:48.307Z,86.39
2019-05-26T02:11:48.361Z,87.26
2019-05-26T02:12:48.342Z,86.76
2019-05-26T02:13:48.279Z,87.57
2019-05-26T02:14:48.259Z,86.59
2019-05-26T02:15:48.262Z,86.39
2019-05-26T02:16:48.238Z,86.08
2019-05-26T02:17:48.225Z,86.29
2019-05-26T02:18:48.218Z,86.90
2019-05-26T02:19:48.265Z,86.80
2019-05-26T02:20:48.197Z,87.71
2019-05-26T02:21:48.177Z,88.93
2019-05-26T02:22:48.173Z,87.30
2019-05-26T02:23:48.156Z,87.30
2019-05-26T02:24:48.149Z,86.83
2019-05-26T02:25:48.150Z,87.00
2019-05-26T02:26:48.121Z,87.24
2019-05-26T02:27:48.120Z,88.22
2019-05-26T02:28:48.104Z,87.00
2019-05-26T02:29:48.096Z,87.45
2019-05-26T02:30:48.190Z,87.76
2019-05-26T02:31:48.074Z,87.55
2019-05-26T02:32:48.063Z,88.17
2019-05-26T02:33:48.049Z,87.96
2019-05-26T02:34:48.046Z,89.08
2019-05-26T02:35:48.064Z,88.47
2019-05-26T02:36:48.017Z,88.26
2019-05-26T02:37:48.048Z,88.17
2019-05-26T02:39:01.089Z,89.28
2019-05-26T02:39:48.980Z,89.18
2019-05-26T02:40:47.981Z,89.08
2019-05-26T02:41:47.966Z,89.08
2019-05-26T02:42:47.957Z,89.59
2019-05-26T02:43:47.939Z,89.18
2019-05-26T02:44:47.927Z,89.28
2019-05-26T02:45:47.929Z,89.14
2019-05-26T02:46:47.908Z,89.14
2019-05-26T02:47:47.894Z,88.73
2019-05-26T02:48:47.903Z,89.28
2019-05-26T02:49:47.872Z,88.32
2019-05-26T02:50:47.868Z,88.37
2019-05-26T02:51:47.857Z,88.32
2019-05-26T02:52:47.862Z,89.39
2019-05-26T02:53:47.837Z,88.22
2019-05-26T02:54:47.819Z,87.76
2019-05-26T02:55:47.809Z,87.61
2019-05-26T02:56:47.805Z,89.34
2019-05-26T02:57:47.795Z,89.75
2019-05-26T02:58:47.780Z,88.32
2019-05-26T02:59:47.774Z,87.85
2019-05-26T03:00:47.755Z,88.22
2019-05-26T03:02:02.227Z,89.04
2019-05-26T03:02:48.751Z,89.04
2019-05-26T03:03:47.738Z,87.92
2019-05-26T03:04:47.715Z,88.84
2019-05-26T03:05:47.713Z,88.32
2019-05-26T03:06:47.701Z,88.02
2019-05-26T03:07:47.682Z,87.71
2019-05-26T03:08:47.678Z,87.96
2019-05-26T03:09:47.662Z,87.71
2019-05-26T03:10:47.712Z,89.65
2019-05-26T03:11:47.646Z,89.75
2019-05-26T03:12:47.625Z,88.02
2019-05-26T03:13:47.630Z,87.82
2019-05-26T03:14:47.622Z,86.59
2019-05-26T03:15:47.601Z,89.65
2019-05-26T03:16:47.587Z,88.18
2019-05-26T03:17:47.592Z,87.41
2019-05-26T03:18:47.570Z,87.06
2019-05-26T03:19:47.558Z,87.26
2019-05-26T03:20:47.536Z,87.67
2019-05-26T03:21:47.543Z,87.00
2019-05-26T03:22:47.527Z,87.77
2019-05-26T03:23:47.511Z,87.98
2019-05-26T03:24:47.501Z,87.67
2019-05-26T03:25:47.509Z,86.86
2019-05-26T03:26:47.486Z,87.26
2019-05-26T03:27:47.471Z,86.65
2019-05-26T03:28:47.456Z,86.04
2019-05-26T03:29:47.449Z,86.86
2019-05-26T03:30:47.434Z,87.37
2019-05-26T03:31:47.453Z,85.84
2019-05-26T03:32:47.420Z,87.37
2019-05-26T03:33:47.401Z,86.65
2019-05-26T03:34:47.383Z,85.33
2019-05-26T03:35:47.389Z,86.04
2019-05-26T03:36:47.376Z,85.43
2019-05-26T03:37:47.368Z,86.00
2019-05-26T03:38:47.339Z,88.04
2019-05-26T03:39:48.214Z,85.90
2019-05-26T03:40:47.339Z,85.90
2019-05-26T03:41:47.327Z,87.02
2019-05-26T03:42:47.310Z,86.00
2019-05-26T03:43:47.290Z,86.21
2019-05-26T03:44:47.278Z,85.60
2019-05-26T03:45:47.267Z,84.78
2019-05-26T03:46:47.362Z,85.49
2019-05-26T03:47:47.247Z,85.39
2019-05-26T03:48:47.253Z,84.88
2019-05-26T03:49:47.239Z,85.08
2019-05-26T03:50:47.212Z,85.25
2019-05-26T03:51:47.205Z,85.19
2019-05-26T03:52:47.194Z,85.39
2019-05-26T03:53:47.178Z,85.80
2019-05-26T03:54:47.168Z,84.94
2019-05-26T03:55:47.171Z,84.88
2019-05-26T03:56:47.151Z,86.37
2019-05-26T03:57:47.156Z,85.35
2019-05-26T03:58:47.123Z,85.25
2019-05-26T03:59:47.142Z,85.14
2019-05-26T04:00:47.107Z,86.06
2019-05-26T04:01:47.096Z,85.14
2019-05-26T04:02:47.087Z,84.23
2019-05-26T04:03:47.071Z,85.86
2019-05-26T04:04:47.057Z,86.06
2019-05-26T04:05:47.048Z,85.14
2019-05-26T04:06:47.076Z,85.25
2019-05-26T04:07:47.027Z,85.25
2019-05-26T04:08:47.041Z,85.35
2019-05-26T04:10:03.146Z,85.55
2019-05-26T04:10:48.020Z,85.96
2019-05-26T04:11:47.105Z,85.86
2019-05-26T04:12:46.980Z,87.18
2019-05-26T04:13:46.962Z,85.35
2019-05-26T04:14:46.968Z,85.35
2019-05-26T04:15:46.965Z,85.55
2019-05-26T04:16:46.932Z,86.06
2019-05-26T04:17:46.943Z,85.96
2019-05-26T04:18:46.911Z,85.75
2019-05-26T04:19:46.905Z,85.45
2019-05-26T04:20:46.918Z,85.05
2019-05-26T04:21:46.881Z,85.86
2019-05-26T04:22:46.878Z,85.66
2019-05-26T04:23:46.864Z,85.96
2019-05-26T04:24:46.846Z,86.88
2019-05-26T04:25:46.835Z,87.59
2019-05-26T04:26:46.824Z,86.16
2019-05-26T04:27:46.820Z,85.66
2019-05-26T04:28:46.813Z,85.75
2019-05-26T04:29:46.805Z,85.45
2019-05-26T04:30:46.824Z,85.75
2019-05-26T04:31:46.763Z,86.16
2019-05-26T04:32:46.778Z,86.16
2019-05-26T04:33:46.749Z,85.86
2019-05-26T04:34:46.772Z,85.72
2019-05-26T04:35:46.728Z,86.88
2019-05-26T04:36:46.719Z,86.27
2019-05-26T04:37:46.768Z,87.08
2019-05-26T04:38:46.695Z,85.72
2019-05-26T04:39:46.697Z,85.14
2019-05-26T04:40:46.670Z,85.00
2019-05-26T04:41:46.660Z,86.43
2019-05-26T04:42:46.668Z,86.02
2019-05-26T04:43:46.680Z,86.02
2019-05-26T04:44:46.650Z,86.16
2019-05-26T04:45:46.628Z,84.59
2019-05-26T04:46:46.607Z,85.00
2019-05-26T04:47:46.608Z,85.61
2019-05-26T04:48:46.589Z,85.92
2019-05-26T04:49:46.576Z,85.00
2019-05-26T04:50:46.574Z,85.31
2019-05-26T04:51:46.562Z,85.82
2019-05-26T04:53:04.629Z,84.80
2019-05-26T04:53:47.544Z,85.00
2019-05-26T04:54:46.522Z,84.70
2019-05-26T04:55:46.510Z,84.35
2019-05-26T04:56:46.511Z,83.34
2019-05-26T04:57:46.491Z,83.64
2019-05-26T04:58:46.486Z,84.25
2019-05-26T04:59:46.489Z,85.06
2019-05-26T05:00:46.477Z,84.97
2019-05-26T05:01:46.449Z,85.17
2019-05-26T05:02:46.433Z,85.17
2019-05-26T05:03:46.422Z,84.76
2019-05-26T05:04:46.405Z,84.86
2019-05-26T05:05:46.395Z,85.06
2019-05-26T05:06:46.473Z,85.78
2019-05-26T05:07:46.398Z,85.06
2019-05-26T05:08:46.373Z,84.97
2019-05-26T05:09:46.350Z,85.23
2019-05-26T05:10:46.340Z,84.92
2019-05-26T05:11:46.342Z,84.45
2019-05-26T05:12:46.324Z,84.72
2019-05-26T05:13:46.310Z,84.21
2019-05-26T05:14:46.301Z,84.97
2019-05-26T05:15:46.284Z,85.27
2019-05-26T05:16:46.290Z,85.06
2019-05-26T05:17:46.353Z,85.06
2019-05-26T05:18:46.261Z,86.15
2019-05-26T05:19:46.251Z,85.13
2019-05-26T05:20:46.230Z,85.13
2019-05-26T05:21:46.232Z,84.82
2019-05-26T05:22:46.220Z,84.92
2019-05-26T05:23:46.204Z,86.04
2019-05-26T05:24:46.197Z,85.74
2019-05-26T05:25:46.177Z,85.64
2019-05-26T05:26:46.170Z,85.23
2019-05-26T05:27:46.154Z,85.03
2019-05-26T05:28:46.215Z,84.01
2019-05-26T05:29:46.132Z,83.26
2019-05-26T05:30:46.123Z,83.36
2019-05-26T05:31:46.117Z,84.07
2019-05-26T05:32:46.104Z,83.97
2019-05-26T05:33:46.100Z,83.76
2019-05-26T05:34:46.086Z,85.09
2019-05-26T05:35:46.077Z,82.85
2019-05-26T05:36:46.068Z,83.56
2019-05-26T05:37:46.043Z,84.88
2019-05-26T05:38:46.050Z,83.42
2019-05-26T05:39:46.041Z,85.05
2019-05-26T05:40:59.130Z,82.61
2019-05-26T05:41:47.009Z,82.10
2019-05-26T05:42:45.997Z,81.79
2019-05-26T05:43:45.995Z,82.10
2019-05-26T05:44:45.973Z,80.47
2019-05-26T05:45:45.965Z,82.40
2019-05-26T05:46:45.951Z,82.00
2019-05-26T05:47:45.941Z,81.19
2019-05-26T05:48:45.943Z,81.35
2019-05-26T05:49:45.911Z,81.35
2019-05-26T05:50:45.901Z,81.56
2019-05-26T05:51:45.891Z,79.72
2019-05-26T05:52:45.885Z,80.27
2019-05-26T05:53:45.899Z,80.44
2019-05-26T05:54:45.865Z,82.26
2019-05-26T05:55:45.850Z,79.02
2019-05-26T05:56:45.835Z,78.51
2019-05-26T05:57:45.861Z,79.16
2019-05-26T05:58:45.830Z,80.44
2019-05-26T05:59:45.810Z,80.33
2019-05-26T06:00:45.799Z,80.27
2019-05-26T06:01:45.803Z,80.33
2019-05-26T06:02:45.772Z,80.54
2019-05-26T06:03:45.793Z,81.66
2019-05-26T06:04:45.756Z,81.25
2019-05-26T06:05:45.750Z,79.12
2019-05-26T06:06:45.732Z,79.32
2019-05-26T06:07:45.730Z,79.02
2019-05-26T06:08:45.720Z,79.08
2019-05-26T06:09:45.760Z,78.47
2019-05-26T06:10:45.681Z,78.41
2019-05-26T06:11:45.676Z,77.25
2019-05-26T06:12:45.663Z,79.18
2019-05-26T06:13:45.957Z,79.49
2019-05-26T06:14:45.736Z,77.36
2019-05-26T06:15:45.713Z,78.47
2019-05-26T06:16:45.631Z,78.57
2019-05-26T06:17:45.667Z,77.66
2019-05-26T06:18:45.623Z,78.88
2019-05-26T06:19:45.677Z,77.56
2019-05-26T06:20:45.590Z,77.12
2019-05-26T06:21:45.597Z,78.78
2019-05-26T06:22:45.574Z,77.76
2019-05-26T06:23:45.582Z,78.78
2019-05-26T06:24:45.539Z,78.78
2019-05-26T06:25:45.523Z,77.56
2019-05-26T06:26:45.609Z,77.93
2019-05-26T06:27:45.554Z,78.53
2019-05-26T06:28:45.489Z,79.35
2019-05-26T06:29:58.344Z,78.23
2019-05-26T06:30:46.477Z,78.23
2019-05-26T06:31:45.671Z,79.35
2019-05-26T06:32:45.572Z,78.50
2019-05-26T06:33:45.477Z,78.19
2019-05-26T06:34:45.425Z,77.18
2019-05-26T06:35:45.422Z,77.89
2019-05-26T06:36:45.409Z,76.54
2019-05-26T06:37:45.419Z,76.54
2019-05-26T06:38:45.387Z,76.47
2019-05-26T06:39:45.387Z,75.22
2019-05-26T06:40:45.403Z,75.22
2019-05-26T06:41:45.378Z,75.52
2019-05-26T06:42:45.341Z,75.62
2019-05-26T06:43:45.332Z,75.73
2019-05-26T06:44:53.527Z,75.22
2019-05-26T06:45:46.307Z,75.32
2019-05-26T06:46:45.297Z,75.12
2019-05-26T06:47:45.300Z,75.32
2019-05-26T06:48:45.403Z,75.22
2019-05-26T06:49:45.296Z,75.28
2019-05-26T06:50:45.279Z,75.38
2019-05-26T06:51:45.258Z,76.29
2019-05-26T06:52:45.239Z,75.38
2019-05-26T06:53:45.230Z,74.48
2019-05-26T06:54:45.224Z,74.17
2019-05-26T06:55:45.331Z,73.66
2019-05-26T06:56:45.208Z,75.18
2019-05-26T06:57:45.183Z,74.98
2019-05-26T06:58:45.170Z,76.36
2019-05-26T06:59:45.175Z,76.97
2019-05-26T07:00:45.160Z,74.24
2019-05-26T07:01:45.161Z,75.35
2019-05-26T07:02:45.129Z,76.77
2019-05-26T07:03:45.116Z,74.64
2019-05-26T07:04:45.121Z,74.60
2019-05-26T07:05:45.107Z,75.01
2019-05-26T07:06:45.110Z,74.71
2019-05-26T07:07:45.066Z,75.11
2019-05-26T07:08:45.051Z,76.03
2019-05-26T07:09:45.068Z,75.31
2019-05-26T07:10:45.196Z,75.38
2019-05-26T07:11:55.579Z,74.16
2019-05-26T07:12:46.014Z,74.54
2019-05-26T07:13:44.998Z,73.36
2019-05-26T07:14:44.995Z,72.55
2019-05-26T07:15:44.989Z,72.92
2019-05-26T07:16:44.988Z,73.22
2019-05-26T07:17:44.967Z,73.83
2019-05-26T07:18:44.978Z,74.23
2019-05-26T07:19:44.966Z,71.91
2019-05-26T07:20:44.959Z,72.72
2019-05-26T07:21:44.916Z,73.43
2019-05-26T07:22:44.908Z,72.11
2019-05-26T07:23:44.907Z,72.31
2019-05-26T07:24:44.895Z,73.93
2019-05-26T07:25:44.878Z,72.99
2019-05-26T07:26:44.858Z,73.49
2019-05-26T07:27:44.848Z,71.87
2019-05-26T07:28:44.850Z,72.28
2019-05-26T07:29:44.848Z,72.64
2019-05-26T07:30:44.828Z,71.44
2019-05-26T07:31:44.811Z,71.53
2019-05-26T07:32:44.933Z,72.75
2019-05-26T07:33:44.789Z,72.24
2019-05-26T07:34:44.798Z,69.62
2019-05-26T07:35:44.784Z,70.39
2019-05-26T07:36:44.807Z,70.29
2019-05-26T07:37:44.747Z,70.59
2019-05-26T07:38:44.737Z,70.59
2019-05-26T07:39:44.739Z,71.17
2019-05-26T07:40:44.737Z,69.45
2019-05-26T07:41:44.706Z,67.53
2019-05-26T07:42:44.722Z,68.95
2019-05-26T07:43:44.681Z,68.81
2019-05-26T07:44:44.672Z,67.50
2019-05-26T07:45:44.665Z,69.48
2019-05-26T07:46:44.662Z,70.69
2019-05-26T07:47:44.657Z,70.06
2019-05-26T07:48:44.624Z,67.84
2019-05-26T07:49:44.622Z,67.60
2019-05-26T07:50:44.606Z,67.30
2019-05-26T07:51:44.596Z,68.41
2019-05-26T07:52:44.584Z,67.88
2019-05-26T07:53:44.577Z,66.77
2019-05-26T07:54:44.691Z,65.16
2019-05-26T07:55:44.557Z,64.45
2019-05-26T07:56:44.540Z,65.22
2019-05-26T07:57:44.620Z,65.83
2019-05-26T07:58:44.516Z,65.80
2019-05-26T07:59:44.509Z,63.82
2019-05-26T08:00:44.512Z,63.08
2019-05-26T08:01:44.482Z,63.18
2019-05-26T08:02:44.469Z,64.26
2019-05-26T08:03:44.462Z,64.19
2019-05-26T08:04:44.450Z,64.16
2019-05-26T08:05:44.457Z,64.16
2019-05-26T08:06:44.451Z,63.45
2019-05-26T08:07:44.422Z,62.24
2019-05-26T08:08:44.412Z,62.95
2019-05-26T08:09:44.401Z,61.24
2019-05-26T08:10:44.395Z,61.51
2019-05-26T08:11:44.394Z,62.82
2019-05-26T08:12:44.369Z,64.13
2019-05-26T08:13:44.347Z,61.58
2019-05-26T08:14:44.338Z,63.49
2019-05-26T08:15:44.388Z,64.10
2019-05-26T08:16:44.362Z,63.19
2019-05-26T08:17:44.308Z,59.65
2019-05-26T08:18:44.298Z,60.05
2019-05-26T08:19:44.290Z,60.45
2019-05-26T08:20:44.309Z,62.96
2019-05-26T08:21:44.258Z,60.62
2019-05-26T08:22:44.257Z,59.82
2019-05-26T08:23:44.370Z,61.02
2019-05-26T08:24:44.224Z,61.02
2019-05-26T08:25:44.230Z,59.79
2019-05-26T08:26:44.211Z,61.40
2019-05-26T08:27:44.246Z,62.70
2019-05-26T08:28:44.193Z,59.49
2019-05-26T08:29:44.171Z,59.66
2019-05-26T08:30:44.180Z,57.79
2019-05-26T08:31:44.178Z,59.39
2019-05-26T08:32:44.149Z,60.10
2019-05-26T08:33:44.139Z,58.59
2019-05-26T08:34:45.577Z,59.29
2019-05-26T08:35:44.152Z,59.66
2019-05-26T08:36:44.100Z,59.59
2019-05-26T08:37:44.085Z,61.50
2019-05-26T08:38:44.105Z,59.89
2019-05-26T08:39:48.004Z,62.07
2019-05-26T08:40:44.077Z,63.07
2019-05-26T08:41:44.046Z,60.49
2019-05-26T08:42:44.840Z,60.10
2019-05-26T08:43:44.033Z,59.49
2019-05-26T08:44:44.024Z,59.39
2019-05-26T08:45:44.029Z,60.89
2019-05-26T08:46:44.005Z,63.31
2019-05-26T08:47:43.980Z,64.21
2019-05-26T08:48:43.971Z,62.10
2019-05-26T08:49:43.964Z,59.29
2019-05-26T08:50:43.946Z,57.89
2019-05-26T08:51:43.945Z,59.06
2019-05-26T08:52:44.024Z,59.66
2019-05-26T08:53:43.933Z,57.59
2019-05-26T08:54:43.904Z,58.29
2019-05-26T08:55:43.889Z,57.98
2019-05-26T08:56:43.878Z,60.66
2019-05-26T08:57:43.871Z,59.09
2019-05-26T08:58:43.855Z,59.19
2019-05-26T08:59:43.855Z,59.29
2019-05-26T09:00:43.836Z,60.19
2019-05-26T09:01:43.822Z,59.39
2019-05-26T09:02:43.814Z,59.39
2019-05-26T09:03:43.820Z,57.89
2019-05-26T09:04:43.792Z,57.59
2019-05-26T09:05:43.787Z,57.68
2019-05-26T09:06:43.772Z,57.68
2019-05-26T09:07:43.764Z,55.10
2019-05-26T09:08:43.756Z,55.60
2019-05-26T09:09:43.870Z,58.69
2019-05-26T09:10:43.739Z,60.12
2019-05-26T09:11:43.720Z,59.32
2019-05-26T09:12:47.701Z,56.01
2019-05-26T09:13:44.697Z,55.40
2019-05-26T09:14:43.821Z,54.10
2019-05-26T09:15:43.680Z,55.08
2019-05-26T09:16:43.664Z,54.60
2019-05-26T09:17:43.648Z,55.58
2019-05-26T09:18:43.636Z,54.97
2019-05-26T09:19:43.625Z,54.47
2019-05-26T09:20:43.615Z,56.28
2019-05-26T09:21:43.768Z,55.68
2019-05-26T09:22:43.585Z,57.66
2019-05-26T09:23:43.596Z,55.95
2019-05-26T09:24:43.577Z,55.55
2019-05-26T09:25:46.382Z,56.83
2019-05-26T09:26:43.568Z,57.93
2019-05-26T09:27:43.538Z,57.73
2019-05-26T09:28:43.530Z,57.63
2019-05-26T09:29:43.511Z,59.74
2019-05-26T09:30:43.508Z,57.00
2019-05-26T09:31:43.546Z,55.60
2019-05-26T09:32:43.502Z,59.20
2019-05-26T09:33:43.471Z,59.08
2019-05-26T09:34:43.452Z,57.68
2019-05-26T09:35:43.447Z,56.07
2019-05-26T09:36:43.451Z,54.27
2019-05-26T09:37:43.427Z,54.37
2019-05-26T09:38:43.430Z,54.55
2019-05-26T09:39:43.402Z,53.34
2019-05-26T09:40:43.387Z,52.34
2019-05-26T09:41:43.506Z,51.77
2019-05-26T09:42:43.366Z,52.67
2019-05-26T09:43:43.398Z,54.57
2019-05-26T09:44:43.351Z,52.07
2019-05-26T09:45:43.339Z,51.87
2019-05-26T09:46:43.323Z,53.67
2019-05-26T09:47:43.334Z,53.27
2019-05-26T09:48:43.307Z,54.77
2019-05-26T09:49:43.305Z,53.77
2019-05-26T09:50:43.281Z,53.77
2019-05-26T09:51:43.284Z,54.57
2019-05-26T09:52:43.272Z,53.97
2019-05-26T09:53:43.260Z,53.89
2019-05-26T09:54:43.248Z,53.19
2019-05-26T09:55:43.241Z,54.30
2019-05-26T09:56:43.223Z,53.52
2019-05-26T09:57:43.211Z,54.32
2019-05-26T09:58:43.229Z,54.62
2019-05-26T09:59:43.185Z,53.95
2019-05-26T10:00:43.197Z,56.02
2019-05-26T10:01:43.183Z,55.65
2019-05-26T10:02:43.159Z,54.85
2019-05-26T10:03:43.150Z,59.77
2019-05-26T10:04:43.135Z,52.34
2019-05-26T10:05:43.150Z,52.84
2019-05-26T10:06:43.123Z,54.47
2019-05-26T10:07:43.110Z,53.97
2019-05-26T10:08:43.117Z,56.38
2019-05-26T10:09:43.076Z,56.58
2019-05-26T10:10:43.069Z,57.68
2019-05-26T10:11:43.071Z,55.58
2019-05-26T10:12:43.152Z,54.27
2019-05-26T10:13:43.031Z,54.68
2019-05-26T10:14:43.030Z,53.67
2019-05-26T10:15:43.011Z,54.20
2019-05-26T10:16:43.035Z,55.51
2019-05-26T10:17:43.023Z,56.88
2019-05-26T10:18:43.006Z,56.78
2019-05-26T10:19:42.964Z,57.01
2019-05-26T10:20:42.975Z,57.31
2019-05-26T10:21:42.952Z,55.20
2019-05-26T10:22:42.987Z,56.10
2019-05-26T10:23:42.943Z,54.83
2019-05-26T10:24:42.933Z,53.92
2019-05-26T10:25:42.950Z,54.93
2019-05-26T10:26:42.890Z,57.71
2019-05-26T10:27:43.179Z,56.81
2019-05-26T10:28:42.871Z,55.23
2019-05-26T10:29:42.897Z,54.43
2019-05-26T10:30:42.883Z,54.72
2019-05-26T10:31:42.842Z,57.34
2019-05-26T10:32:42.838Z,56.13
2019-05-26T10:33:42.815Z,58.34
2019-05-26T10:34:42.912Z,57.74
2019-05-26T10:35:42.808Z,57.87
2019-05-26T10:36:42.824Z,58.14
2019-05-26T10:37:42.805Z,55.13
2019-05-26T10:38:42.754Z,55.63
2019-05-26T10:39:45.051Z,55.05
2019-05-26T10:40:42.778Z,54.15
2019-05-26T10:41:42.765Z,53.75
2019-05-26T10:42:42.709Z,54.55
2019-05-26T10:43:47.475Z,54.75
2019-05-26T10:44:43.782Z,54.75
2019-05-26T10:45:42.682Z,55.46
2019-05-26T10:46:42.672Z,54.93
2019-05-26T10:47:42.670Z,53.55
2019-05-26T10:48:42.670Z,54.53
2019-05-26T10:49:42.635Z,55.46
2019-05-26T10:50:42.625Z,56.74
2019-05-26T10:51:42.615Z,56.03
2019-05-26T10:52:42.662Z,53.92
2019-05-26T10:53:42.649Z,54.93
2019-05-26T10:54:42.616Z,54.72
2019-05-26T10:55:42.574Z,55.86
2019-05-26T10:56:42.779Z,54.96
2019-05-26T10:57:42.564Z,53.92
2019-05-26T10:58:42.552Z,52.24
2019-05-26T10:59:42.520Z,53.75
2019-05-26T11:00:42.519Z,52.01
2019-05-26T11:01:42.779Z,52.72
2019-05-26T11:02:42.484Z,53.72
2019-05-26T11:03:42.536Z,51.14
2019-05-26T11:04:42.497Z,52.62
2019-05-26T11:05:42.455Z,54.43
2019-05-26T11:06:42.455Z,52.94
2019-05-26T11:07:42.694Z,52.64
2019-05-26T11:08:42.447Z,51.64
2019-05-26T11:09:42.430Z,51.14
2019-05-26T11:10:42.411Z,52.14
2019-05-26T11:11:42.416Z,51.74
2019-05-26T11:12:42.372Z,51.31
2019-05-26T11:13:42.401Z,50.91
2019-05-26T11:14:42.363Z,52.72
2019-05-26T11:15:42.408Z,52.62
2019-05-26T11:16:42.330Z,54.40
2019-05-26T11:17:42.318Z,51.69
2019-05-26T11:18:42.332Z,52.67
2019-05-26T11:19:42.295Z,50.48
2019-05-26T11:20:42.315Z,51.97
2019-05-26T11:21:42.278Z,49.16
2019-05-26T11:22:42.286Z,49.66
2019-05-26T11:23:42.266Z,48.53
2019-05-26T11:24:42.247Z,48.63
2019-05-26T11:25:42.303Z,47.93
2019-05-26T11:26:42.213Z,47.63
2019-05-26T11:27:42.224Z,49.54
2019-05-26T11:28:42.276Z,48.13
2019-05-26T11:29:42.188Z,48.83
2019-05-26T11:30:42.173Z,49.23
2019-05-26T11:31:42.172Z,49.71
2019-05-26T11:32:42.183Z,48.33
2019-05-26T11:33:42.198Z,48.93
2019-05-26T11:34:42.223Z,48.33
2019-05-26T11:35:42.175Z,48.73
2019-05-26T11:36:42.150Z,49.63
2019-05-26T11:37:42.112Z,46.93
2019-05-26T11:38:42.100Z,48.03
2019-05-26T11:39:42.156Z,48.03
2019-05-26T11:40:42.689Z,46.93
2019-05-26T11:41:42.057Z,49.74
2019-05-26T11:42:44.830Z,49.26
2019-05-26T11:43:42.401Z,48.83
2019-05-26T11:44:42.018Z,49.36
2019-05-26T11:45:42.010Z,52.55
2019-05-26T11:46:41.998Z,50.04
2019-05-26T11:47:42.117Z,48.23
2019-05-26T11:48:41.994Z,51.94
2019-05-26T11:49:41.961Z,50.34
2019-05-26T11:50:41.952Z,51.94
2019-05-26T11:51:41.939Z,55.25
2019-05-26T11:52:41.922Z,51.24
2019-05-26T11:53:41.938Z,51.74
2019-05-26T11:54:41.910Z,52.24
2019-05-26T11:55:41.896Z,52.04
2019-05-26T11:56:41.903Z,52.55
2019-05-26T11:57:41.872Z,51.12
2019-05-26T11:58:41.885Z,54.32
2019-05-26T11:59:41.858Z,51.72
2019-05-26T12:00:41.851Z,50.21
2019-05-26T12:01:41.833Z,48.81
2019-05-26T12:02:41.818Z,49.58
2019-05-26T12:03:41.832Z,47.99
2019-05-26T12:04:41.863Z,45.76
2019-05-26T12:05:41.779Z,46.26
2019-05-26T12:06:41.835Z,50.76
2019-05-26T12:07:41.779Z,51.17
2019-05-26T12:08:41.779Z,49.46
2019-05-26T12:09:41.997Z,52.17
2019-05-26T12:10:41.723Z,50.84
2019-05-26T12:11:41.720Z,48.04
2019-05-26T12:12:41.707Z,50.14
2019-05-26T12:13:41.734Z,50.94
2019-05-26T12:14:41.683Z,53.55
2019-05-26T12:15:41.676Z,56.05
2019-05-26T12:16:41.673Z,51.12
2019-05-26T12:17:41.657Z,50.82
2019-05-26T12:18:41.681Z,47.31
2019-05-26T12:19:41.633Z,48.82
2019-05-26T12:20:41.630Z,47.31
2019-05-26T12:21:41.606Z,48.90
2019-05-26T12:22:41.762Z,47.22
2019-05-26T12:23:41.604Z,47.11
2019-05-26T12:24:41.583Z,47.99
2019-05-26T12:25:41.577Z,49.11
2019-05-26T12:26:41.554Z,49.49
2019-05-26T12:27:41.536Z,47.09
2019-05-26T12:28:41.544Z,48.90
2019-05-26T12:29:41.520Z,48.69
2019-05-26T12:30:41.520Z,50.29
2019-05-26T12:31:41.518Z,46.77
2019-05-26T12:32:41.563Z,50.87
2019-05-26T12:33:41.486Z,52.97
2019-05-26T12:34:41.460Z,47.97
2019-05-26T12:35:41.468Z,49.47
2019-05-26T12:36:41.497Z,50.77
2019-05-26T12:37:41.513Z,47.35
2019-05-26T12:38:41.583Z,47.97
2019-05-26T12:39:41.407Z,46.05
2019-05-26T12:40:41.416Z,47.45
2019-05-26T12:41:41.392Z,46.85
2019-05-26T12:42:41.385Z,46.35
2019-05-26T12:43:41.369Z,51.04
2019-05-26T12:44:49.745Z,50.95
2019-05-26T12:45:42.356Z,48.55
2019-05-26T12:46:41.362Z,44.95
2019-05-26T12:47:41.346Z,47.25
2019-05-26T12:48:41.316Z,47.25
2019-05-26T12:49:41.310Z,49.44
2019-05-26T12:50:41.296Z,50.24
2019-05-26T12:51:41.286Z,48.65
2019-05-26T12:52:41.278Z,47.05